Time;durP1;ratioP1;P1;durP2;ratioP2;P2;SDS_P1;SDS_P2;PMS_P1;PMS_P2;Temp;Humidity;BMP_temperature;BMP_pressure;BME280_temperature;BME280_humidity;BME280_pressure;Samples;Min_cycle;Max_cycle;Signal;HPM_P1;HPM_P2
2023/09/29 00:00:34;;;;;;;11.85;4.45;;;;;;;;;;5024955;28;20061;-70
2023/09/29 00:03:00;;;;;;;14.77;4.50;;;;;;;;;;5024922;28;20061;-71
2023/09/29 00:05:27;;;;;;;16.50;5.05;;;;;;;;;;5023711;28;20057;-70
2023/09/29 00:07:54;;;;;;;19.38;5.40;;;;;;;;;;5024797;28;20190;-70
2023/09/29 00:10:21;;;;;;;13.38;4.28;;;;;;;;;;5024363;28;20604;-70
2023/09/29 00:12:49;;;;;;;11.68;4.30;;;;;;;;;;5024239;28;20100;-70
2023/09/29 00:15:17;;;;;;;12.55;4.47;;;;;;;;;;5024628;28;20133;-71
2023/09/29 00:17:44;;;;;;;14.95;4.47;;;;;;;;;;5024551;28;20123;-71
2023/09/29 00:22:43;;;;;;;9.77;3.90;;;;;;;;;;5024433;28;20064;-70
2023/09/29 00:25:10;;;;;;;10.63;3.20;;;;;;;;;;5024916;28;20133;-71
2023/09/29 00:27:36;;;;;;;15.80;3.60;;;;;;;;;;5007236;28;20045;-70
2023/09/29 00:30:05;;;;;;;15.65;4.80;;;;;;;;;;5024409;28;20062;-70
2023/09/29 00:32:32;;;;;;;11.20;3.90;;;;;;;;;;5024118;28;20133;-71
2023/09/29 00:34:59;;;;;;;13.80;3.70;;;;;;;;;;5023362;28;20046;-70
2023/09/29 00:37:25;;;;;;;11.68;4.18;;;;;;;;;;5023584;28;20053;-71
2023/09/29 00:39:55;;;;;;;12.95;3.83;;;;;;;;;;5023921;28;20107;-71
2023/09/29 00:42:22;;;;;;;10.50;3.85;;;;;;;;;;5024428;28;20504;-70
2023/09/29 00:44:49;;;;;;;9.82;3.63;;;;;;;;;;5006098;28;20055;-70
2023/09/29 00:47:15;;;;;;;25.05;4.45;;;;;;;;;;5003938;28;20144;-70
2023/09/29 00:49:42;;;;;;;14.00;3.70;;;;;;;;;;5004024;28;20456;-71
2023/09/29 00:52:09;;;;;;;16.48;3.97;;;;;;;;;;4986976;28;20058;-70
2023/09/29 00:54:36;;;;;;;14.43;3.95;;;;;;;;;;5004205;28;20379;-70
2023/09/29 00:57:05;;;;;;;12.95;4.10;;;;;;;;;;5020758;28;20108;-71
2023/09/29 00:59:34;;;;;;;14.13;4.35;;;;;;;;;;5022836;28;20528;-71
2023/09/29 01:02:03;;;;;;;10.90;3.63;;;;;;;;;;5024114;28;20054;-71
2023/09/29 01:04:31;;;;;;;11.15;3.40;;;;;;;;;;5022677;28;20159;-70
2023/09/29 01:06:57;;;;;;;10.75;3.30;;;;;;;;;;5003736;28;20774;-70
2023/09/29 01:09:24;;;;;;;15.63;4.13;;;;;;;;;;5000303;28;20058;-70
2023/09/29 01:11:52;;;;;;;16.83;4.03;;;;;;;;;;5003689;28;20112;-70
2023/09/29 01:14:18;;;;;;;15.93;4.85;;;;;;;;;;5003937;28;20061;-70
2023/09/29 01:16:45;;;;;;;15.52;4.03;;;;;;;;;;5003798;28;20658;-71
2023/09/29 01:19:12;;;;;;;13.80;4.00;;;;;;;;;;5003764;28;20065;-71
2023/09/29 01:21:44;;;;;;;11.63;4.18;;;;;;;;;;5003172;28;20105;-70
2023/09/29 01:24:11;;;;;;;11.35;4.20;;;;;;;;;;5020527;28;20053;-70
2023/09/29 01:26:38;;;;;;;11.32;4.20;;;;;;;;;;5022793;28;20401;-72
2023/09/29 01:29:05;;;;;;;8.95;3.55;;;;;;;;;;5023270;28;20054;-71
2023/09/29 01:31:34;;;;;;;10.00;3.88;;;;;;;;;;5023899;28;20404;-71
2023/09/29 01:34:04;;;;;;;15.38;6.00;;;;;;;;;;5022056;28;20525;-71
2023/09/29 01:36:31;;;;;;;10.45;4.20;;;;;;;;;;5023033;28;20060;-71
2023/09/29 01:38:57;;;;;;;18.95;4.60;;;;;;;;;;5023011;28;20049;-71
2023/09/29 01:41:24;;;;;;;18.05;5.57;;;;;;;;;;5023502;28;20049;-71
2023/09/29 01:43:52;;;;;;;12.68;4.35;;;;;;;;;;5022479;28;20425;-71
2023/09/29 01:46:22;;;;;;;11.63;4.07;;;;;;;;;;5024080;28;20065;-70
2023/09/29 01:48:50;;;;;;;15.68;5.15;;;;;;;;;;5021788;28;20509;-71
2023/09/29 01:51:17;;;;;;;16.05;5.32;;;;;;;;;;5026786;28;20137;-71
2023/09/29 01:53:48;;;;;;;15.18;5.18;;;;;;;;;;5026010;28;20061;-70
2023/09/29 01:56:16;;;;;;;15.80;4.55;;;;;;;;;;5007129;28;20066;-70
2023/09/29 01:58:45;;;;;;;11.80;4.20;;;;;;;;;;5022767;28;20054;-70
2023/09/29 02:01:13;;;;;;;11.85;4.15;;;;;;;;;;5026721;28;20060;-70
2023/09/29 02:03:40;;;;;;;16.20;4.85;;;;;;;;;;5009406;28;20061;-70
2023/09/29 02:06:07;;;;;;;15.43;4.35;;;;;;;;;;5026626;28;20136;-70
2023/09/29 02:08:33;;;;;;;12.70;3.95;;;;;;;;;;5026745;28;20058;-70
2023/09/29 02:11:00;;;;;;;9.90;4.32;;;;;;;;;;5026296;28;20070;-70
2023/09/29 02:13:26;;;;;;;14.13;4.55;;;;;;;;;;5026164;28;20596;-70
2023/09/29 02:15:53;;;;;;;13.15;4.25;;;;;;;;;;5026821;28;20551;-70
2023/09/29 02:18:20;;;;;;;11.48;4.35;;;;;;;;;;5020006;28;20046;-70
2023/09/29 02:20:46;;;;;;;16.42;4.53;;;;;;;;;;5018661;28;20081;-70
2023/09/29 02:23:14;;;;;;;10.82;3.95;;;;;;;;;;5005376;28;20425;-70
2023/09/29 02:25:41;;;;;;;15.93;4.07;;;;;;;;;;5006701;28;20089;-71
2023/09/29 02:28:09;;;;;;;13.52;4.03;;;;;;;;;;5006892;28;20583;-70
2023/09/29 02:30:36;;;;;;;14.30;4.72;;;;;;;;;;5007019;28;20069;-70
2023/09/29 02:33:03;;;;;;;11.95;4.28;;;;;;;;;;5006977;28;20057;-71
2023/09/29 02:35:30;;;;;;;18.95;4.82;;;;;;;;;;5018450;28;20171;-70
2023/09/29 02:37:57;;;;;;;12.85;4.30;;;;;;;;;;5025680;28;20504;-70
2023/09/29 02:40:23;;;;;;;13.85;4.97;;;;;;;;;;5025980;28;20050;-70
2023/09/29 02:42:50;;;;;;;9.77;4.70;;;;;;;;;;5026201;28;20058;-71
2023/09/29 02:45:17;;;;;;;16.00;5.18;;;;;;;;;;5026729;28;20061;-71
2023/09/29 02:47:47;;;;;;;13.93;5.03;;;;;;;;;;5024135;28;20068;-70
2023/09/29 02:50:18;;;;;;;16.70;4.15;;;;;;;;;;5006284;28;20097;-70
2023/09/29 02:52:44;;;;;;;16.73;4.78;;;;;;;;;;5006895;28;20533;-70
2023/09/29 02:55:12;;;;;;;13.18;4.20;;;;;;;;;;5021322;28;20206;-70
2023/09/29 02:57:43;;;;;;;15.88;5.03;;;;;;;;;;5025837;28;20503;-70
2023/09/29 03:00:21;;;;;;;14.30;5.80;;;;;;;;;;5025694;28;20493;-70
2023/09/29 03:02:48;;;;;;;16.00;5.22;;;;;;;;;;5021701;28;20551;-70
2023/09/29 03:05:16;;;;;;;10.05;4.95;;;;;;;;;;4989412;28;20513;-70
2023/09/29 03:07:43;;;;;;;12.05;4.30;;;;;;;;;;5006287;28;20551;-70
2023/09/29 03:10:14;;;;;;;10.88;4.45;;;;;;;;;;5006289;28;20129;-70
2023/09/29 03:12:42;;;;;;;13.35;4.60;;;;;;;;;;5006529;28;20060;-70
2023/09/29 03:15:15;;;;;;;14.60;4.88;;;;;;;;;;5006935;28;20069;-71
2023/09/29 03:17:43;;;;;;;16.38;4.95;;;;;;;;;;5002269;28;20452;-71
2023/09/29 03:20:12;;;;;;;9.70;3.85;;;;;;;;;;4988561;28;20608;-70
2023/09/29 03:22:39;;;;;;;13.00;3.95;;;;;;;;;;5021416;28;20148;-71
2023/09/29 03:25:06;;;;;;;11.27;4.57;;;;;;;;;;5025454;28;20049;-70
2023/09/29 03:27:34;;;;;;;11.73;4.25;;;;;;;;;;5025550;28;20049;-70
2023/09/29 03:30:01;;;;;;;11.55;4.97;;;;;;;;;;5025708;28;20112;-70
2023/09/29 03:32:29;;;;;;;13.23;4.05;;;;;;;;;;5025854;28;20050;-71
2023/09/29 03:34:55;;;;;;;11.10;4.20;;;;;;;;;;5024845;28;20046;-71
2023/09/29 03:37:23;;;;;;;12.65;4.22;;;;;;;;;;5024356;28;20170;-70
2023/09/29 03:39:49;;;;;;;18.02;4.97;;;;;;;;;;5024931;28;20121;-71
2023/09/29 03:42:20;;;;;;;8.45;3.63;;;;;;;;;;5024124;28;20065;-70
2023/09/29 03:44:47;;;;;;;10.88;4.43;;;;;;;;;;5025168;28;20058;-70
2023/09/29 03:47:14;;;;;;;10.02;4.22;;;;;;;;;;5024925;28;20069;-70
2023/09/29 03:49:42;;;;;;;9.10;4.00;;;;;;;;;;5024520;28;20109;-69
2023/09/29 03:52:09;;;;;;;11.27;5.53;;;;;;;;;;5024958;28;20054;-69
2023/09/29 03:54:36;;;;;;;15.35;4.60;;;;;;;;;;5024675;28;20057;-69
2023/09/29 03:57:10;;;;;;;11.27;4.45;;;;;;;;;;5025141;28;20112;-69
2023/09/29 03:59:37;;;;;;;11.50;4.00;;;;;;;;;;5025152;28;20046;-69
2023/09/29 04:02:04;;;;;;;8.45;4.15;;;;;;;;;;5025045;28;20061;-69
2023/09/29 04:04:32;;;;;;;12.60;5.03;;;;;;;;;;5024740;28;20571;-69
2023/09/29 04:06:58;;;;;;;13.77;4.25;;;;;;;;;;5025101;28;20084;-68
2023/09/29 04:09:24;;;;;;;12.93;4.30;;;;;;;;;;5023312;28;20749;-69
2023/09/29 04:11:51;;;;;;;11.25;4.30;;;;;;;;;;5023950;28;20969;-68
2023/09/29 04:14:17;;;;;;;9.63;3.63;;;;;;;;;;5021923;28;20054;-68
2023/09/29 04:16:59;;;;;;;8.73;4.05;;;;;;;;;;5024344;28;20081;-70
2023/09/29 04:19:26;;;;;;;7.85;3.78;;;;;;;;;;5023566;28;20159;-68
2023/09/29 04:21:52;;;;;;;19.35;4.90;;;;;;;;;;5024578;28;20571;-68
2023/09/29 04:24:19;;;;;;;6.70;3.88;;;;;;;;;;5024301;28;20523;-69
2023/09/29 04:26:45;;;;;;;15.10;4.28;;;;;;;;;;5024829;28;20054;-68
2023/09/29 04:29:12;;;;;;;11.07;4.75;;;;;;;;;;5024484;28;20085;-68
2023/09/29 04:31:39;;;;;;;9.73;4.47;;;;;;;;;;5022866;28;20144;-68
2023/09/29 04:34:05;;;;;;;10.73;5.30;;;;;;;;;;5023790;28;20054;-69
2023/09/29 04:36:32;;;;;;;10.43;4.55;;;;;;;;;;5018232;28;20153;-69
2023/09/29 04:38:59;;;;;;;12.77;4.22;;;;;;;;;;5024391;28;20114;-68
2023/09/29 04:41:25;;;;;;;10.23;4.50;;;;;;;;;;5024392;28;20635;-69
2023/09/29 04:43:52;;;;;;;9.07;4.57;;;;;;;;;;5024370;28;20064;-69
2023/09/29 04:46:19;;;;;;;8.68;4.40;;;;;;;;;;5023654;28;20527;-68
2023/09/29 04:48:45;;;;;;;10.35;4.60;;;;;;;;;;5023688;28;20132;-71
2023/09/29 04:51:12;;;;;;;7.75;3.70;;;;;;;;;;5023907;28;20337;-68
2023/09/29 04:53:38;;;;;;;9.75;4.00;;;;;;;;;;5023632;28;20085;-68
2023/09/29 04:56:04;;;;;;;14.15;4.68;;;;;;;;;;5023457;28;20061;-68
2023/09/29 04:58:31;;;;;;;7.43;3.40;;;;;;;;;;5023814;28;20145;-68
2023/09/29 05:00:57;;;;;;;10.18;3.80;;;;;;;;;;5024273;28;20132;-68
2023/09/29 05:03:24;;;;;;;7.93;4.28;;;;;;;;;;5024684;28;20058;-68
2023/09/29 05:05:51;;;;;;;7.88;3.10;;;;;;;;;;5023148;28;20056;-68
2023/09/29 05:08:17;;;;;;;8.73;3.65;;;;;;;;;;5024202;28;20057;-68
2023/09/29 05:10:44;;;;;;;8.65;4.05;;;;;;;;;;5024078;28;20444;-68
2023/09/29 05:13:11;;;;;;;9.88;3.63;;;;;;;;;;5024026;28;20057;-68
2023/09/29 05:15:37;;;;;;;5.32;3.40;;;;;;;;;;5023249;28;20046;-68
2023/09/29 05:18:04;;;;;;;9.18;3.67;;;;;;;;;;5024509;28;20517;-68
2023/09/29 05:20:30;;;;;;;9.70;3.78;;;;;;;;;;5023980;28;20129;-68
2023/09/29 05:22:57;;;;;;;6.00;3.40;;;;;;;;;;5023834;28;20508;-68
2023/09/29 05:25:23;;;;;;;8.07;3.85;;;;;;;;;;5023472;28;20108;-68
2023/09/29 05:27:50;;;;;;;9.18;3.67;;;;;;;;;;5023800;28;20570;-68
2023/09/29 05:30:18;;;;;;;7.68;3.00;;;;;;;;;;5023634;28;20054;-68
2023/09/29 05:32:45;;;;;;;7.68;3.63;;;;;;;;;;5024069;28;20054;-68
2023/09/29 05:35:12;;;;;;;8.93;3.58;;;;;;;;;;5022525;28;20631;-68
2023/09/29 05:37:38;;;;;;;6.78;3.50;;;;;;;;;;5022956;28;20053;-68
2023/09/29 05:40:05;;;;;;;5.13;2.97;;;;;;;;;;5023567;28;20108;-68
2023/09/29 05:42:32;;;;;;;4.80;3.25;;;;;;;;;;5022781;28;20519;-68
2023/09/29 05:45:16;;;;;;;7.68;3.38;;;;;;;;;;5024036;28;20065;-68
2023/09/29 05:47:43;;;;;;;8.65;3.38;;;;;;;;;;5022746;28;20583;-68
2023/09/29 05:50:09;;;;;;;7.32;3.50;;;;;;;;;;5022712;28;20614;-68
2023/09/29 05:52:44;;;;;;;13.77;3.88;;;;;;;;;;5023848;28;20050;-68
2023/09/29 05:55:29;;;;;;;7.57;3.40;;;;;;;;;;5022826;28;20050;-68
2023/09/29 05:57:55;;;;;;;8.65;3.20;;;;;;;;;;5023309;28;20643;-68
2023/09/29 06:00:22;;;;;;;6.75;2.70;;;;;;;;;;5005478;28;20153;-68
2023/09/29 06:02:48;;;;;;;6.63;3.08;;;;;;;;;;5022418;28;20058;-68
2023/09/29 06:05:15;;;;;;;8.60;3.03;;;;;;;;;;5023252;28;20109;-68
2023/09/29 06:07:41;;;;;;;7.80;3.08;;;;;;;;;;5023157;28;20512;-68
2023/09/29 06:10:08;;;;;;;4.35;3.00;;;;;;;;;;5023282;28;20116;-68
2023/09/29 06:12:34;;;;;;;5.93;3.10;;;;;;;;;;5023354;28;20058;-68
2023/09/29 06:15:01;;;;;;;7.03;3.03;;;;;;;;;;5021923;28;20062;-68
2023/09/29 06:17:27;;;;;;;4.97;3.03;;;;;;;;;;5022339;28;20058;-68
2023/09/29 06:19:54;;;;;;;5.07;3.15;;;;;;;;;;5022593;28;20054;-68
2023/09/29 06:22:20;;;;;;;4.88;2.95;;;;;;;;;;5023795;28;20482;-68
2023/09/29 06:24:47;;;;;;;5.28;2.90;;;;;;;;;;5023259;28;20149;-68
2023/09/29 06:27:13;;;;;;;6.00;3.15;;;;;;;;;;5023003;28;20082;-68
2023/09/29 06:29:40;;;;;;;9.80;3.35;;;;;;;;;;5022431;28;20054;-68
2023/09/29 06:32:09;;;;;;;5.85;3.47;;;;;;;;;;5021978;28;20108;-68
2023/09/29 06:34:35;;;;;;;5.82;3.40;;;;;;;;;;5024105;28;20065;-68
2023/09/29 06:37:02;;;;;;;4.90;3.10;;;;;;;;;;5026461;28;20054;-68
2023/09/29 06:39:29;;;;;;;7.72;2.97;;;;;;;;;;5007809;28;20050;-68
2023/09/29 06:41:56;;;;;;;5.88;3.20;;;;;;;;;;5027001;28;20053;-68
2023/09/29 06:44:23;;;;;;;5.80;3.30;;;;;;;;;;5025392;28;20053;-68
2023/09/29 06:46:49;;;;;;;4.93;3.05;;;;;;;;;;5025478;28;20050;-68
2023/09/29 06:49:16;;;;;;;4.47;2.85;;;;;;;;;;5025775;28;20109;-68
2023/09/29 06:51:42;;;;;;;5.20;3.17;;;;;;;;;;5025938;28;20161;-68
2023/09/29 06:54:10;;;;;;;15.27;5.15;;;;;;;;;;5026293;28;20128;-68
2023/09/29 06:56:37;;;;;;;6.05;2.88;;;;;;;;;;5025625;28;20112;-68
2023/09/29 06:59:04;;;;;;;5.35;2.85;;;;;;;;;;5025996;28;20816;-68
2023/09/29 07:01:33;;;;;;;4.80;2.92;;;;;;;;;;5024954;28;20054;-68
2023/09/29 07:03:59;;;;;;;10.02;3.38;;;;;;;;;;5025671;28;20058;-68
2023/09/29 07:06:29;;;;;;;7.70;3.15;;;;;;;;;;5025322;28;20053;-69
2023/09/29 07:08:56;;;;;;;4.70;2.65;;;;;;;;;;5024764;28;20054;-68
2023/09/29 07:11:23;;;;;;;8.57;3.10;;;;;;;;;;5023302;28;20504;-68
2023/09/29 07:13:49;;;;;;;5.95;3.33;;;;;;;;;;5025947;28;20133;-68
2023/09/29 07:16:18;;;;;;;5.55;3.30;;;;;;;;;;5025298;28;20065;-68
2023/09/29 07:18:44;;;;;;;5.47;2.83;;;;;;;;;;5025297;28;20104;-69
2023/09/29 07:21:11;;;;;;;5.45;3.15;;;;;;;;;;5025418;28;20050;-67
2023/09/29 07:23:38;;;;;;;4.45;2.75;;;;;;;;;;5025603;28;20519;-69
2023/09/29 07:26:05;;;;;;;5.53;3.17;;;;;;;;;;5025788;28;20054;-68
2023/09/29 07:28:33;;;;;;;5.55;2.85;;;;;;;;;;5025606;28;20145;-68
2023/09/29 07:30:59;;;;;;;4.80;2.92;;;;;;;;;;5020103;28;20066;-68
2023/09/29 07:33:26;;;;;;;5.40;3.15;;;;;;;;;;5005735;28;20137;-68
2023/09/29 07:35:54;;;;;;;4.63;2.65;;;;;;;;;;5005629;28;20150;-68
2023/09/29 07:38:21;;;;;;;6.05;2.70;;;;;;;;;;5022073;28;20050;-68
2023/09/29 07:40:48;;;;;;;5.10;3.03;;;;;;;;;;5023352;28;20112;-68
2023/09/29 07:43:14;;;;;;;4.88;2.75;;;;;;;;;;5020249;28;20054;-68
2023/09/29 07:45:41;;;;;;;4.47;2.85;;;;;;;;;;5026221;28;20056;-68
2023/09/29 07:48:14;;;;;;;4.55;2.80;;;;;;;;;;5007902;28;20066;-68
2023/09/29 07:50:41;;;;;;;4.10;2.90;;;;;;;;;;5024417;28;20081;-68
2023/09/29 07:53:08;;;;;;;5.28;2.30;;;;;;;;;;5024750;28;20085;-69
2023/09/29 07:55:35;;;;;;;4.53;2.63;;;;;;;;;;5025662;28;20161;-69
2023/09/29 07:58:02;;;;;;;9.95;3.03;;;;;;;;;;5024234;28;20060;-68
2023/09/29 08:00:28;;;;;;;4.05;2.50;;;;;;;;;;5023516;28;20049;-68
2023/09/29 08:02:55;;;;;;;4.25;2.65;;;;;;;;;;5004424;28;20879;-68
2023/09/29 08:05:22;;;;;;;5.53;2.50;;;;;;;;;;5021478;28;20052;-69
2023/09/29 08:07:49;;;;;;;5.30;3.03;;;;;;;;;;5006098;28;20064;-68
2023/09/29 08:10:15;;;;;;;6.10;2.63;;;;;;;;;;5023891;28;20058;-68
2023/09/29 08:12:42;;;;;;;4.07;2.65;;;;;;;;;;5024710;28;20050;-68
2023/09/29 08:15:11;;;;;;;7.22;2.85;;;;;;;;;;5024149;28;20535;-68
2023/09/29 08:17:37;;;;;;;7.38;3.00;;;;;;;;;;5025098;28;20148;-68
2023/09/29 08:20:07;;;;;;;4.63;2.92;;;;;;;;;;5025791;28;20054;-68
2023/09/29 08:22:34;;;;;;;8.57;3.30;;;;;;;;;;5025150;28;20054;-68
2023/09/29 08:25:10;;;;;;;8.65;3.47;;;;;;;;;;5007906;28;20050;-68
2023/09/29 08:27:37;;;;;;;4.55;2.60;;;;;;;;;;5024909;28;20567;-68
2023/09/29 08:30:04;;;;;;;5.18;2.70;;;;;;;;;;5025013;28;20058;-68
2023/09/29 08:32:31;;;;;;;4.97;2.47;;;;;;;;;;5024305;28;20050;-68
2023/09/29 08:34:58;;;;;;;8.98;3.13;;;;;;;;;;5024290;28;20451;-68
2023/09/29 08:37:24;;;;;;;7.22;2.80;;;;;;;;;;5024474;28;20163;-68
2023/09/29 08:39:53;;;;;;;5.53;2.90;;;;;;;;;;5024834;28;20132;-68
2023/09/29 08:42:41;;;;;;;5.22;2.47;;;;;;;;;;5024562;28;20058;-68
2023/09/29 08:45:11;;;;;;;3.80;2.53;;;;;;;;;;5024823;28;20525;-68
2023/09/29 08:47:40;;;;;;;5.70;2.88;;;;;;;;;;5023397;28;20062;-68
2023/09/29 08:50:14;;;;;;;4.38;2.38;;;;;;;;;;5024109;28;20169;-68
2023/09/29 08:52:44;;;;;;;8.57;2.92;;;;;;;;;;5022520;28;20050;-68
2023/09/29 08:55:14;;;;;;;4.45;2.45;;;;;;;;;;5024304;28;20064;-69
2023/09/29 08:57:44;;;;;;;5.80;2.55;;;;;;;;;;5023276;28;20058;-69
2023/09/29 09:00:14;;;;;;;5.90;3.10;;;;;;;;;;5024368;28;20041;-68
2023/09/29 09:02:41;;;;;;;3.13;2.72;;;;;;;;;;5006660;28;20054;-68
2023/09/29 09:05:10;;;;;;;8.02;3.22;;;;;;;;;;5023395;28;20065;-68
2023/09/29 09:07:41;;;;;;;7.80;2.83;;;;;;;;;;5003827;28;20053;-69
2023/09/29 09:10:09;;;;;;;4.95;2.67;;;;;;;;;;5023313;28;20108;-69
2023/09/29 09:12:48;;;;;;;7.57;3.85;;;;;;;;;;5022960;28;20441;-68
2023/09/29 09:15:23;;;;;;;9.52;3.85;;;;;;;;;;5023949;28;20117;-71
2023/09/29 09:17:49;;;;;;;8.85;2.65;;;;;;;;;;5023000;28;20108;-69
2023/09/29 09:20:16;;;;;;;6.88;2.92;;;;;;;;;;5024932;28;20057;-69
2023/09/29 09:22:44;;;;;;;4.25;2.45;;;;;;;;;;5024129;28;20511;-68
2023/09/29 09:25:14;;;;;;;10.95;2.80;;;;;;;;;;5024605;28;20090;-69
2023/09/29 09:27:42;;;;;;;5.28;2.42;;;;;;;;;;5023659;28;20054;-69
2023/09/29 09:30:21;;;;;;;4.43;2.55;;;;;;;;;;5024153;28;20086;-69
2023/09/29 09:32:48;;;;;;;9.52;3.03;;;;;;;;;;5023650;28;20524;-69
2023/09/29 09:35:24;;;;;;;5.15;2.78;;;;;;;;;;5024084;28;20500;-69
2023/09/29 09:37:51;;;;;;;7.15;3.08;;;;;;;;;;5023393;28;20046;-69
2023/09/29 09:40:19;;;;;;;6.38;2.90;;;;;;;;;;5023572;28;20104;-69
2023/09/29 09:42:46;;;;;;;4.97;2.72;;;;;;;;;;5023837;28;20085;-69
2023/09/29 09:45:13;;;;;;;7.47;2.75;;;;;;;;;;5023849;28;20145;-69
2023/09/29 09:47:41;;;;;;;5.90;2.47;;;;;;;;;;5022736;28;20112;-69
2023/09/29 09:50:11;;;;;;;4.60;2.30;;;;;;;;;;5023203;28;20081;-69
2023/09/29 09:52:38;;;;;;;4.03;2.20;;;;;;;;;;5023160;28;20081;-70
2023/09/29 09:55:12;;;;;;;10.60;2.85;;;;;;;;;;5023463;28;20081;-69
2023/09/29 09:57:42;;;;;;;5.20;1.85;;;;;;;;;;5023174;28;20058;-69
2023/09/29 10:00:12;;;;;;;10.77;3.50;;;;;;;;;;5023360;28;20053;-70
2023/09/29 10:02:43;;;;;;;5.55;2.38;;;;;;;;;;5023371;28;20812;-69
2023/09/29 10:05:22;;;;;;;3.88;2.08;;;;;;;;;;5023517;28;20050;-70
2023/09/29 10:07:53;;;;;;;3.38;1.85;;;;;;;;;;5023660;28;20117;-69
2023/09/29 10:10:23;;;;;;;5.20;2.65;;;;;;;;;;5025061;28;20053;-70
2023/09/29 10:12:53;;;;;;;5.38;2.50;;;;;;;;;;5026284;28;20088;-69
2023/09/29 10:15:19;;;;;;;3.17;1.80;;;;;;;;;;5027041;28;20719;-69
2023/09/29 10:17:47;;;;;;;3.85;2.13;;;;;;;;;;5025850;28;20568;-69
2023/09/29 10:20:19;;;;;;;5.65;2.20;;;;;;;;;;5025423;28;20053;-69
2023/09/29 10:22:46;;;;;;;3.03;2.17;;;;;;;;;;5026226;28;20401;-69
2023/09/29 10:25:20;;;;;;;2.10;1.60;;;;;;;;;;5026054;28;20535;-69
2023/09/29 10:27:50;;;;;;;2.58;1.95;;;;;;;;;;5024833;28;20517;-69
2023/09/29 10:30:17;;;;;;;3.53;1.80;;;;;;;;;;5016109;28;20058;-69
2023/09/29 10:32:46;;;;;;;3.72;2.08;;;;;;;;;;5025003;28;20527;-69
2023/09/29 10:35:20;;;;;;;4.57;1.80;;;;;;;;;;5025576;28;20145;-69
2023/09/29 10:37:49;;;;;;;2.80;1.85;;;;;;;;;;5025842;28;20060;-70
2023/09/29 10:40:20;;;;;;;3.28;2.05;;;;;;;;;;5025969;28;20069;-69
2023/09/29 10:42:47;;;;;;;3.38;1.90;;;;;;;;;;5026515;28;20496;-70
2023/09/29 10:45:23;;;;;;;3.95;1.85;;;;;;;;;;5026207;28;20104;-69
2023/09/29 10:47:50;;;;;;;3.35;2.03;;;;;;;;;;5025515;28;20144;-69
2023/09/29 10:50:16;;;;;;;5.53;2.30;;;;;;;;;;5025841;28;20061;-69
2023/09/29 10:52:43;;;;;;;2.85;2.55;;;;;;;;;;5026059;28;20105;-69
2023/09/29 10:55:13;;;;;;;2.85;2.30;;;;;;;;;;5025315;28;20145;-70
2023/09/29 10:57:42;;;;;;;4.63;1.92;;;;;;;;;;5025075;28;20054;-69
2023/09/29 11:00:09;;;;;;;4.72;2.17;;;;;;;;;;5005206;28;20054;-69
2023/09/29 11:02:36;;;;;;;4.53;2.30;;;;;;;;;;5025030;28;20050;-69
2023/09/29 11:05:10;;;;;;;3.90;2.85;;;;;;;;;;5025703;28;20062;-69
2023/09/29 11:07:48;;;;;;;4.00;2.20;;;;;;;;;;5024576;28;20054;-70
2023/09/29 11:10:17;;;;;;;4.97;2.53;;;;;;;;;;5008186;28;20065;-69
2023/09/29 11:12:47;;;;;;;4.65;2.55;;;;;;;;;;5006406;28;20051;-69
2023/09/29 11:15:15;;;;;;;5.30;2.22;;;;;;;;;;5016746;28;20137;-68
2023/09/29 11:17:50;;;;;;;5.47;3.47;;;;;;;;;;5025066;28;20050;-68
2023/09/29 11:20:25;;;;;;;4.32;2.65;;;;;;;;;;5025427;28;20112;-68
2023/09/29 11:23:06;;;;;;;7.03;2.92;;;;;;;;;;5025478;28;20493;-68
2023/09/29 11:25:45;;;;;;;6.22;3.13;;;;;;;;;;5006333;28;20050;-68
2023/09/29 11:28:15;;;;;;;5.85;3.60;;;;;;;;;;4997843;28;20054;-68
2023/09/29 11:30:42;;;;;;;7.15;3.15;;;;;;;;;;5025572;28;20065;-68
2023/09/29 11:33:10;;;;;;;5.97;2.70;;;;;;;;;;5025903;28;21354;-68
2023/09/29 11:35:37;;;;;;;4.60;2.85;;;;;;;;;;5025700;28;20054;-68
2023/09/29 11:38:06;;;;;;;4.97;2.75;;;;;;;;;;5024960;28;20054;-68
2023/09/29 11:40:33;;;;;;;3.90;2.30;;;;;;;;;;5026034;28;20054;-67
2023/09/29 11:43:00;;;;;;;5.03;3.03;;;;;;;;;;5025145;28;20058;-68
2023/09/29 11:45:27;;;;;;;3.28;1.80;;;;;;;;;;5024505;28;20500;-68
2023/09/29 11:47:53;;;;;;;5.45;1.92;;;;;;;;;;5024462;28;20054;-68
2023/09/29 11:50:21;;;;;;;4.25;2.17;;;;;;;;;;5025465;28;20058;-68
2023/09/29 11:52:47;;;;;;;5.53;2.40;;;;;;;;;;5025242;28;20057;-70
2023/09/29 11:55:14;;;;;;;2.97;2.40;;;;;;;;;;5025918;28;20054;-67
2023/09/29 11:57:40;;;;;;;3.30;2.55;;;;;;;;;;5025539;28;20081;-67
2023/09/29 12:00:08;;;;;;;4.30;1.90;;;;;;;;;;5025468;28;20057;-68
2023/09/29 12:02:35;;;;;;;1.40;1.30;;;;;;;;;;5025534;28;20057;-68
2023/09/29 12:05:02;;;;;;;3.10;1.42;;;;;;;;;;5025399;28;20061;-68
2023/09/29 12:07:29;;;;;;;6.82;1.17;;;;;;;;;;5024366;28;20050;-68
2023/09/29 12:09:55;;;;;;;1.65;0.90;;;;;;;;;;5025261;28;20057;-68
2023/09/29 12:12:22;;;;;;;4.28;0.90;;;;;;;;;;5024960;28;20138;-68
2023/09/29 12:14:49;;;;;;;1.85;0.90;;;;;;;;;;5025340;28;20050;-68
2023/09/29 12:17:15;;;;;;;1.35;1.23;;;;;;;;;;5025725;28;20157;-67
2023/09/29 12:19:43;;;;;;;5.32;0.93;;;;;;;;;;5024745;28;20069;-69
2023/09/29 12:22:10;;;;;;;2.92;1.00;;;;;;;;;;5024766;28;20054;-68
2023/09/29 12:24:38;;;;;;;1.67;0.98;;;;;;;;;;5024223;28;20053;-68
2023/09/29 12:27:05;;;;;;;5.32;1.23;;;;;;;;;;5025204;28;20066;-68
2023/09/29 12:29:32;;;;;;;1.77;1.35;;;;;;;;;;5024169;28;20061;-68
2023/09/29 12:31:59;;;;;;;6.15;1.10;;;;;;;;;;5023522;28;20058;-68
2023/09/29 12:34:28;;;;;;;8.23;1.13;;;;;;;;;;5006195;28;20108;-68
2023/09/29 12:36:55;;;;;;;3.63;0.82;;;;;;;;;;5023751;28;20058;-68
2023/09/29 12:39:21;;;;;;;4.55;1.17;;;;;;;;;;5024398;28;20085;-69
2023/09/29 12:41:48;;;;;;;6.05;1.33;;;;;;;;;;5024884;28;20460;-68
2023/09/29 12:44:15;;;;;;;2.80;0.90;;;;;;;;;;5024245;28;20058;-69
2023/09/29 12:46:42;;;;;;;4.90;0.93;;;;;;;;;;4996967;28;20172;-69
2023/09/29 12:49:08;;;;;;;5.68;1.20;;;;;;;;;;5021805;28;20049;-68
2023/09/29 12:51:34;;;;;;;4.63;1.05;;;;;;;;;;5021555;28;20606;-69
2023/09/29 12:54:18;;;;;;;2.45;1.40;;;;;;;;;;5024120;28;20108;-69
2023/09/29 12:56:45;;;;;;;6.18;1.40;;;;;;;;;;5023136;28;20064;-69
2023/09/29 12:59:17;;;;;;;1.70;0.95;;;;;;;;;;5023969;28;20468;-69
2023/09/29 13:01:44;;;;;;;2.60;1.30;;;;;;;;;;5003518;28;20051;-69
2023/09/29 13:04:11;;;;;;;6.72;1.30;;;;;;;;;;5027579;28;20050;-69
2023/09/29 13:06:38;;;;;;;1.85;1.02;;;;;;;;;;5020058;28;20386;-69
2023/09/29 13:09:04;;;;;;;4.78;1.58;;;;;;;;;;5022244;28;20062;-70
2023/09/29 13:11:31;;;;;;;4.85;1.40;;;;;;;;;;5022701;28;20448;-68
2023/09/29 13:13:57;;;;;;;5.85;1.55;;;;;;;;;;5004973;28;20424;-70
2023/09/29 13:16:24;;;;;;;7.75;1.95;;;;;;;;;;5015106;28;20109;-69
2023/09/29 13:18:51;;;;;;;4.18;1.48;;;;;;;;;;5021679;28;20085;-69
2023/09/29 13:21:19;;;;;;;7.30;2.25;;;;;;;;;;5021653;28;20058;-70
2023/09/29 13:23:45;;;;;;;7.75;1.75;;;;;;;;;;5022556;28;20520;-69
2023/09/29 13:26:12;;;;;;;6.72;1.80;;;;;;;;;;5021647;28;20095;-68
2023/09/29 13:28:38;;;;;;;6.35;1.40;;;;;;;;;;5022961;28;20513;-70
2023/09/29 13:31:05;;;;;;;6.50;1.95;;;;;;;;;;5023456;28;20077;-69
2023/09/29 13:33:33;;;;;;;7.28;1.70;;;;;;;;;;5022631;28;20050;-69
2023/09/29 13:36:00;;;;;;;5.43;1.95;;;;;;;;;;5016206;28;20062;-69
2023/09/29 13:38:26;;;;;;;8.65;1.90;;;;;;;;;;5017945;28;20061;-69
2023/09/29 13:40:55;;;;;;;8.77;1.70;;;;;;;;;;5021748;28;20046;-69
2023/09/29 13:43:21;;;;;;;8.98;2.47;;;;;;;;;;5023677;28;20058;-69
2023/09/29 13:45:48;;;;;;;6.25;2.13;;;;;;;;;;5025379;28;20058;-68
2023/09/29 13:48:15;;;;;;;7.90;1.98;;;;;;;;;;5025449;28;20068;-68
2023/09/29 13:50:41;;;;;;;7.63;2.25;;;;;;;;;;5025833;28;20100;-68
2023/09/29 13:53:08;;;;;;;7.18;2.08;;;;;;;;;;5026798;28;20061;-69
2023/09/29 13:55:34;;;;;;;7.57;2.13;;;;;;;;;;5025780;28;20050;-68
2023/09/29 13:58:01;;;;;;;7.70;2.45;;;;;;;;;;5006984;28;20058;-67
2023/09/29 14:00:27;;;;;;;12.63;2.70;;;;;;;;;;5012320;28;20050;-68
2023/09/29 14:02:54;;;;;;;7.15;1.92;;;;;;;;;;5008202;28;20172;-69
2023/09/29 14:05:22;;;;;;;9.30;2.63;;;;;;;;;;5026801;28;20088;-69
2023/09/29 14:07:48;;;;;;;9.48;2.30;;;;;;;;;;5025879;28;20552;-69
2023/09/29 14:10:16;;;;;;;7.72;2.15;;;;;;;;;;5026298;28;20068;-69
2023/09/29 14:12:43;;;;;;;10.52;2.70;;;;;;;;;;5009141;28;20061;-69
2023/09/29 14:15:09;;;;;;;11.80;2.70;;;;;;;;;;5026737;28;20575;-69
2023/09/29 14:17:36;;;;;;;9.77;2.85;;;;;;;;;;5024672;28;20141;-69
2023/09/29 14:20:05;;;;;;;16.67;4.47;;;;;;;;;;5029311;28;20050;-69
2023/09/29 14:22:32;;;;;;;6.93;2.58;;;;;;;;;;5025505;28;20053;-69
2023/09/29 14:24:58;;;;;;;8.55;2.63;;;;;;;;;;5026183;28;20085;-69
2023/09/29 14:27:25;;;;;;;9.65;2.38;;;;;;;;;;5024484;28;20046;-70
2023/09/29 14:29:51;;;;;;;5.60;2.13;;;;;;;;;;5025605;28;20061;-70
2023/09/29 14:32:18;;;;;;;8.13;2.53;;;;;;;;;;5021220;28;20070;-70
2023/09/29 14:34:44;;;;;;;8.40;2.63;;;;;;;;;;5011055;28;20452;-69
2023/09/29 14:37:11;;;;;;;8.05;2.30;;;;;;;;;;5023925;28;20520;-69
2023/09/29 14:39:37;;;;;;;8.70;2.45;;;;;;;;;;5016410;28;20047;-70
2023/09/29 14:42:03;;;;;;;10.35;2.17;;;;;;;;;;5007460;28;20034;-69
2023/09/29 14:44:31;;;;;;;10.98;2.65;;;;;;;;;;5025421;28;20058;-70